Time;durP1;ratioP1;P1;durP2;ratioP2;P2;SDS_P1;SDS_P2;PMS_P1;PMS_P2;Temp;Humidity;BMP_temperature;BMP_pressure;BME280_temperature;BME280_humidity;BME280_pressure;Samples;Min_cycle;Max_cycle;Signal;HPM_P1;HPM_P2
2021/06/30 00:00:30;;;;;;;5.78;4.60;;;16.40;99.90;;;;;;5053035;28;20407;-82
2021/06/30 00:02:56;;;;;;;5.60;5.10;;;16.30;99.90;;;;;;5052588;28;20401;-81
2021/06/30 00:05:21;;;;;;;5.20;4.80;;;16.30;99.90;;;;;;5051749;28;20401;-79
2021/06/30 00:07:47;;;;;;;7.55;4.50;;;16.30;99.90;;;;;;5050815;28;20480;-79
2021/06/30 00:10:13;;;;;;;6.77;4.70;;;16.40;99.90;;;;;;5050991;28;20433;-79
2021/06/30 00:12:39;;;;;;;5.30;4.80;;;16.40;99.90;;;;;;5051769;28;20448;-78
2021/06/30 00:15:17;;;;;;;6.40;5.10;;;16.30;99.90;;;;;;5052216;28;20793;-79
2021/06/30 00:17:44;;;;;;;6.60;5.32;;;16.30;99.90;;;;;;5051019;28;20402;-78
2021/06/30 00:20:11;;;;;;;6.07;4.80;;;16.30;99.90;;;;;;5050004;28;20945;-78
2021/06/30 00:22:36;;;;;;;6.88;5.30;;;16.30;99.90;;;;;;5051368;28;20792;-79
2021/06/30 00:25:03;;;;;;;7.40;5.45;;;16.30;99.90;;;;;;5048594;28;20409;-78
2021/06/30 00:27:28;;;;;;;8.18;6.00;;;16.20;99.90;;;;;;5042947;28;20401;-79
2021/06/30 00:29:54;;;;;;;5.95;5.32;;;16.30;99.90;;;;;;5051581;28;20386;-80
2021/06/30 00:32:20;;;;;;;7.00;5.80;;;16.20;99.90;;;;;;5053839;28;20413;-81
2021/06/30 00:34:45;;;;;;;7.80;5.90;;;16.30;99.90;;;;;;5052474;28;20401;-79
2021/06/30 00:37:11;;;;;;;7.72;5.45;;;16.30;99.90;;;;;;5054062;28;20384;-79
2021/06/30 00:39:36;;;;;;;7.80;5.60;;;16.30;99.90;;;;;;5059369;28;20393;-77
2021/06/30 00:42:02;;;;;;;6.23;5.63;;;16.30;99.90;;;;;;5060593;28;20395;-78
2021/06/30 00:44:33;;;;;;;6.17;5.33;;;16.30;99.90;;;;;;5059002;28;20597;-79
2021/06/30 00:46:59;;;;;;;6.65;5.43;;;16.30;99.90;;;;;;5060297;28;20400;-81
2021/06/30 00:49:25;;;;;;;7.43;6.20;;;16.30;99.90;;;;;;5053093;28;20378;-79
2021/06/30 00:51:50;;;;;;;7.40;5.82;;;16.20;99.90;;;;;;5051591;28;20405;-78
2021/06/30 00:54:16;;;;;;;9.13;6.20;;;16.30;99.90;;;;;;5054082;28;20438;-78
2021/06/30 00:56:41;;;;;;;8.30;7.07;;;16.20;99.90;;;;;;5069902;28;20382;-79
2021/06/30 00:59:11;;;;;;;10.18;6.80;;;16.20;99.90;;;;;;5042307;28;20513;-79
2021/06/30 01:01:37;;;;;;;8.63;7.10;;;16.10;99.90;;;;;;5035035;28;20460;-79
2021/06/30 01:04:03;;;;;;;11.93;7.72;;;16.10;99.90;;;;;;5053335;28;20804;-79
2021/06/30 01:06:29;;;;;;;9.10;7.72;;;16.10;99.90;;;;;;5053524;28;20398;-80
2021/06/30 01:08:54;;;;;;;12.48;8.40;;;16.10;99.90;;;;;;5053247;28;20733;-79
2021/06/30 01:11:20;;;;;;;14.60;9.15;;;15.90;99.90;;;;;;5054307;28;20408;-79
2021/06/30 01:13:47;;;;;;;12.45;9.18;;;15.90;99.90;;;;;;5052796;28;20392;-80
2021/06/30 01:16:14;;;;;;;13.50;9.07;;;15.90;99.90;;;;;;5039356;28;20391;-78
2021/06/30 01:18:40;;;;;;;15.98;10.23;;;16.00;99.90;;;;;;5034759;28;20744;-80
2021/06/30 01:21:09;;;;;;;13.50;10.00;;;15.90;99.90;;;;;;5042817;28;20393;-79
2021/06/30 01:23:34;;;;;;;13.50;9.70;;;16.10;99.90;;;;;;5063979;28;20453;-77
2021/06/30 01:26:00;;;;;;;13.03;9.60;;;16.10;99.90;;;;;;5063642;28;20385;-77
2021/06/30 01:28:26;;;;;;;12.70;9.70;;;16.10;99.90;;;;;;5063651;28;20377;-77
2021/06/30 01:30:53;;;;;;;12.77;9.87;;;16.20;99.90;;;;;;5059990;28;20411;-80
2021/06/30 01:33:19;;;;;;;16.35;10.82;;;16.30;99.90;;;;;;5052253;28;20640;-81
2021/06/30 01:35:45;;;;;;;13.95;11.02;;;16.30;99.90;;;;;;5052659;28;20429;-81
2021/06/30 01:38:10;;;;;;;13.23;9.90;;;16.30;99.90;;;;;;5058332;28;20401;-81
2021/06/30 01:40:36;;;;;;;13.38;10.13;;;16.40;99.90;;;;;;5055522;28;20413;-78
2021/06/30 01:43:03;;;;;;;14.18;10.55;;;16.40;99.90;;;;;;5057699;28;20392;-82
2021/06/30 01:45:29;;;;;;;13.67;9.40;;;16.40;99.90;;;;;;5056242;28;20874;-80
2021/06/30 01:47:55;;;;;;;12.77;10.10;;;16.40;99.90;;;;;;5056653;28;20388;-81
2021/06/30 01:50:20;;;;;;;13.57;10.00;;;16.40;99.90;;;;;;5066063;28;20398;-78
2021/06/30 01:52:46;;;;;;;13.50;10.37;;;16.30;99.90;;;;;;5070225;28;20465;-80
2021/06/30 01:55:14;;;;;;;12.65;10.15;;;16.30;99.90;;;;;;5058553;28;20389;-80
2021/06/30 01:57:41;;;;;;;16.00;11.40;;;16.30;99.90;;;;;;5057986;28;20447;-80
2021/06/30 02:00:09;;;;;;;14.50;11.13;;;16.30;99.90;;;;;;5060999;28;20397;-79
2021/06/30 02:02:35;;;;;;;14.93;11.20;;;16.30;99.90;;;;;;5060177;28;20471;-81
2021/06/30 02:05:12;;;;;;;15.40;11.50;;;16.40;99.90;;;;;;5059108;28;20415;-80
2021/06/30 02:07:39;;;;;;;14.73;11.60;;;16.40;99.90;;;;;;5040121;28;20474;-80
2021/06/30 02:10:07;;;;;;;14.05;10.60;;;16.50;99.90;;;;;;5042514;28;20414;-79
2021/06/30 02:12:32;;;;;;;17.67;12.40;;;16.40;99.90;;;;;;5056100;28;20401;-76
2021/06/30 02:14:58;;;;;;;14.43;12.10;;;16.40;99.90;;;;;;5074119;28;20390;-78
2021/06/30 02:17:24;;;;;;;20.40;13.77;;;16.30;99.90;;;;;;5069222;28;20438;-78
2021/06/30 02:19:49;;;;;;;16.58;11.93;;;16.30;99.90;;;;;;5051468;28;20387;-79
2021/06/30 02:22:18;;;;;;;19.88;13.73;;;16.20;99.90;;;;;;5046004;28;20390;-78
2021/06/30 02:24:44;;;;;;;17.90;13.52;;;16.20;99.90;;;;;;5067520;28;20384;-79
2021/06/30 02:27:10;;;;;;;16.50;12.80;;;16.20;99.90;;;;;;5006978;28;1743348;-78
2021/06/30 02:29:36;;;;;;;20.33;14.40;;;16.30;99.90;;;;;;5069127;28;20389;-79
2021/06/30 02:32:02;;;;;;;22.10;13.97;;;16.30;99.90;;;;;;5065217;28;20421;-80
2021/06/30 02:34:28;;;;;;;19.20;13.60;;;16.30;99.90;;;;;;5063993;28;20385;-79
2021/06/30 02:36:53;;;;;;;19.70;13.10;;;16.30;99.90;;;;;;5057249;28;20405;-81
2021/06/30 02:39:19;;;;;;;17.70;12.67;;;16.30;99.90;;;;;;5057229;28;20468;-79
2021/06/30 02:41:44;;;;;;;20.33;13.30;;;16.30;99.90;;;;;;5057011;28;20589;-80
2021/06/30 02:44:10;;;;;;;20.50;13.90;;;16.30;99.90;;;;;;5057336;28;20390;-81
2021/06/30 02:46:36;;;;;;;22.90;13.60;;;16.30;99.90;;;;;;5056544;28;20874;-79
2021/06/30 02:49:01;;;;;;;19.80;14.10;;;16.40;99.90;;;;;;5060607;28;20401;-77
2021/06/30 02:51:27;;;;;;;21.57;13.83;;;16.40;99.90;;;;;;5066043;28;20412;-77
2021/06/30 02:53:52;;;;;;;18.77;13.13;;;16.40;99.90;;;;;;5066385;28;20561;-82
2021/06/30 02:56:21;;;;;;;18.63;12.43;;;16.40;99.90;;;;;;5058030;28;20382;-80
2021/06/30 02:58:48;;;;;;;17.75;11.70;;;16.50;99.90;;;;;;5055489;28;20447;-80
2021/06/30 03:01:13;;;;;;;15.65;10.40;;;16.40;99.90;;;;;;5059562;28;20389;-81
2021/06/30 03:03:39;;;;;;;17.03;9.90;;;16.50;99.90;;;;;;5072282;28;20420;-76
2021/06/30 03:06:04;;;;;;;16.35;9.98;;;16.50;99.90;;;;;;5074147;28;20440;-79
2021/06/30 03:08:30;;;;;;;17.08;10.60;;;16.50;99.90;;;;;;5063826;28;20457;-78
2021/06/30 03:10:56;;;;;;;16.97;10.30;;;16.40;99.90;;;;;;5053965;28;20397;-81
2021/06/30 03:13:21;;;;;;;15.60;9.40;;;16.40;99.90;;;;;;5062586;28;20409;-79
2021/06/30 03:15:48;;;;;;;16.57;10.00;;;16.40;99.90;;;;;;5061673;28;21035;-77
2021/06/30 03:18:14;;;;;;;13.52;8.68;;;16.40;99.90;;;;;;5055078;28;20389;-80
2021/06/30 03:20:39;;;;;;;12.02;8.90;;;16.30;99.90;;;;;;5055854;28;20500;-81
2021/06/30 03:23:05;;;;;;;11.85;7.38;;;16.40;99.90;;;;;;5071421;28;20394;-77
2021/06/30 03:25:31;;;;;;;12.10;7.60;;;16.30;99.90;;;;;;5065318;28;20432;-78
2021/06/30 03:27:56;;;;;;;11.83;7.40;;;16.30;99.90;;;;;;5065898;23;20939;-76
2021/06/30 03:30:22;;;;;;;8.40;6.50;;;16.40;99.90;;;;;;5079380;28;20771;-77
2021/06/30 03:32:48;;;;;;;9.38;6.80;;;16.40;99.90;;;;;;5071798;28;20415;-76
2021/06/30 03:35:14;;;;;;;13.05;7.03;;;16.30;99.90;;;;;;5073508;28;20796;-77
2021/06/30 03:37:40;;;;;;;12.07;6.60;;;16.40;99.90;;;;;;5055952;28;20746;-77
2021/06/30 03:40:06;;;;;;;14.45;6.90;;;16.30;99.90;;;;;;5053129;28;20385;-77
2021/06/30 03:42:32;;;;;;;10.77;7.00;;;16.30;99.90;;;;;;5048748;28;20397;-77
2021/06/30 03:44:57;;;;;;;17.77;7.07;;;16.40;99.90;;;;;;5066428;28;20410;-76
2021/06/30 03:47:23;;;;;;;7.83;6.30;;;16.40;99.90;;;;;;5052256;28;20382;-76
2021/06/30 03:49:49;;;;;;;10.73;7.00;;;16.40;99.90;;;;;;5053446;28;20389;-76
2021/06/30 03:52:14;;;;;;;11.10;8.07;;;16.40;99.90;;;;;;5050115;28;20462;-76
2021/06/30 03:54:40;;;;;;;11.10;7.68;;;16.40;99.90;;;;;;5052528;28;20382;-74
2021/06/30 03:57:05;;;;;;;14.00;8.20;;;16.40;99.90;;;;;;5049685;28;20469;-77
2021/06/30 03:59:31;;;;;;;12.63;7.60;;;16.40;99.90;;;;;;5056014;28;20385;-77
2021/06/30 04:01:58;;;;;;;8.30;6.70;;;16.40;99.90;;;;;;5056932;28;21071;-77
2021/06/30 04:04:25;;;;;;;11.00;5.80;;;16.50;99.90;;;;;;5052828;28;20392;-76
2021/06/30 04:06:50;;;;;;;8.13;6.03;;;16.50;99.90;;;;;;5049120;28;20393;-75
2021/06/30 04:09:16;;;;;;;8.07;5.50;;;16.40;99.90;;;;;;5050482;28;20435;-76
2021/06/30 04:11:41;;;;;;;8.25;5.70;;;16.40;99.90;;;;;;5049901;28;20397;-76
2021/06/30 04:14:08;;;;;;;5.73;4.93;;;16.40;99.90;;;;;;5050324;28;20757;-77
2021/06/30 04:16:34;;;;;;;7.03;4.57;;;16.40;99.90;;;;;;5071280;28;20381;-77
2021/06/30 04:19:00;;;;;;;9.83;5.00;;;16.40;99.90;;;;;;5053766;28;20461;-77
2021/06/30 04:21:25;;;;;;;5.40;4.90;;;16.40;99.90;;;;;;5055186;28;20462;-77
2021/06/30 04:23:53;;;;;;;7.50;4.40;;;16.50;99.90;;;;;;5050840;28;20385;-75
2021/06/30 04:26:19;;;;;;;4.50;3.70;;;16.50;99.90;;;;;;5049185;28;20731;-75
2021/06/30 04:28:44;;;;;;;5.07;3.70;;;16.60;99.90;;;;;;5049164;28;20377;-75
2021/06/30 04:31:10;;;;;;;4.90;3.20;;;16.60;99.90;;;;;;5049237;28;20882;-76
2021/06/30 04:33:35;;;;;;;4.65;3.63;;;16.50;99.90;;;;;;5049912;28;20833;-76
2021/06/30 04:36:01;;;;;;;5.00;3.40;;;16.60;99.90;;;;;;5049153;28;20446;-74
2021/06/30 04:38:28;;;;;;;6.80;3.27;;;16.60;99.90;;;;;;5048866;28;20384;-75
2021/06/30 04:40:54;;;;;;;3.58;2.63;;;16.70;99.90;;;;;;5048440;28;20393;-74
2021/06/30 04:43:20;;;;;;;6.93;3.20;;;16.80;99.90;;;;;;5049010;28;21024;-75
2021/06/30 04:45:47;;;;;;;5.10;2.72;;;16.80;99.90;;;;;;5048968;28;20949;-74
2021/06/30 04:48:13;;;;;;;7.20;3.47;;;16.90;99.90;;;;;;5049290;28;20522;-77
2021/06/30 04:50:38;;;;;;;6.00;3.23;;;17.00;99.90;;;;;;5050944;28;21249;-78
2021/06/30 04:53:04;;;;;;;7.03;3.50;;;17.00;99.90;;;;;;5053494;28;20411;-77
2021/06/30 04:55:29;;;;;;;7.30;3.63;;;17.10;99.90;;;;;;5053068;28;20473;-76
2021/06/30 04:57:55;;;;;;;5.35;2.90;;;17.10;99.90;;;;;;5049240;28;20384;-76
2021/06/30 05:00:20;;;;;;;4.00;3.25;;;17.20;99.90;;;;;;5054709;28;20751;-76
2021/06/30 05:02:46;;;;;;;6.33;3.50;;;17.30;99.90;;;;;;5054020;28;20392;-76
2021/06/30 05:05:12;;;;;;;6.83;3.63;;;17.30;99.90;;;;;;5050326;28;20462;-76
2021/06/30 05:07:37;;;;;;;4.63;3.20;;;17.30;99.20;;;;;;5040871;28;20951;-77
2021/06/30 05:10:04;;;;;;;4.78;3.50;;;17.30;98.80;;;;;;5029339;28;20387;-77
2021/06/30 05:12:29;;;;;;;7.15;3.70;;;17.20;99.80;;;;;;5044316;28;20492;-77
2021/06/30 05:14:55;;;;;;;5.23;3.50;;;17.20;99.90;;;;;;5050668;28;21263;-76
2021/06/30 05:17:21;;;;;;;9.10;4.07;;;17.20;99.90;;;;;;5052931;28;20380;-78
2021/06/30 05:19:47;;;;;;;6.28;4.25;;;17.20;99.90;;;;;;5053662;28;20772;-76
2021/06/30 05:22:12;;;;;;;15.73;4.80;;;17.30;99.90;;;;;;5051369;28;20584;-77
2021/06/30 05:24:38;;;;;;;10.55;3.50;;;17.60;97.80;;;;;;5052757;28;20396;-77
2021/06/30 05:27:04;;;;;;;9.68;4.45;;;17.90;95.20;;;;;;5052853;28;20504;-77
2021/06/30 05:29:30;;;;;;;11.48;3.90;;;18.20;92.30;;;;;;5052043;28;20396;-77
2021/06/30 05:31:56;;;;;;;12.57;4.20;;;18.50;86.90;;;;;;5067180;28;20840;-77
2021/06/30 05:34:21;;;;;;;6.87;4.00;;;18.70;84.10;;;;;;5053414;28;20788;-75
2021/06/30 05:36:50;;;;;;;8.47;3.53;;;19.00;80.10;;;;;;5052531;28;20508;-78
2021/06/30 05:39:16;;;;;;;9.27;3.97;;;19.00;77.60;;;;;;5053369;28;20389;-78
2021/06/30 05:41:44;;;;;;;7.90;3.63;;;19.00;77.20;;;;;;5052430;28;20420;-75
2021/06/30 05:44:11;;;;;;;9.25;4.15;;;18.80;78.80;;;;;;5052221;28;20393;-76
2021/06/30 05:46:38;;;;;;;5.22;3.90;;;18.70;81.70;;;;;;5066107;28;20412;-77
2021/06/30 05:49:03;;;;;;;6.85;4.60;;;18.60;82.30;;;;;;5049888;28;20401;-75
2021/06/30 05:51:29;;;;;;;5.43;4.25;;;18.60;84.90;;;;;;5050536;28;20475;-76
2021/06/30 05:53:54;;;;;;;6.37;3.83;;;18.60;85.20;;;;;;5051287;28;20454;-77
2021/06/30 05:56:20;;;;;;;9.20;4.00;;;18.60;86.50;;;;;;5051672;28;20389;-76
2021/06/30 05:58:45;;;;;;;8.85;4.35;;;18.70;86.70;;;;;;5051296;28;20624;-76
2021/06/30 06:01:11;;;;;;;7.70;3.70;;;18.80;83.40;;;;;;5059770;28;20381;-76
2021/06/30 06:03:37;;;;;;;9.65;4.20;;;18.80;84.20;;;;;;5040387;28;20948;-76
2021/06/30 06:06:03;;;;;;;7.60;3.70;;;18.90;83.90;;;;;;5047846;28;20409;-76
2021/06/30 06:08:30;;;;;;;7.75;3.72;;;18.90;79.20;;;;;;5053126;28;20412;-78
2021/06/30 06:10:57;;;;;;;9.70;4.40;;;19.00;76.50;;;;;;5054280;28;21131;-78
2021/06/30 06:13:22;;;;;;;4.57;3.90;;;19.00;75.80;;;;;;5054823;28;20493;-78
2021/06/30 06:15:48;;;;;;;8.33;3.80;;;19.00;76.20;;;;;;5055797;28;20482;-77
2021/06/30 06:18:14;;;;;;;6.70;3.90;;;19.00;76.80;;;;;;5053272;28;20431;-78
2021/06/30 06:20:39;;;;;;;4.55;3.90;;;19.10;75.10;;;;;;5051412;28;20455;-78
2021/06/30 06:23:05;;;;;;;10.90;4.40;;;19.00;76.90;;;;;;5062732;28;20411;-78
2021/06/30 06:25:31;;;;;;;8.60;4.30;;;19.00;76.60;;;;;;5056094;28;20480;-78
2021/06/30 06:27:56;;;;;;;6.72;3.85;;;19.00;78.40;;;;;;5053777;28;20821;-78
2021/06/30 06:30:27;;;;;;;10.85;4.30;;;19.20;75.80;;;;;;5058546;28;20414;-79
2021/06/30 06:32:52;;;;;;;12.27;4.22;;;19.20;75.50;;;;;;5062997;28;20742;-80
2021/06/30 06:35:18;;;;;;;7.72;4.10;;;19.40;74.30;;;;;;5067397;28;20392;-78
2021/06/30 06:37:44;;;;;;;8.30;4.10;;;19.40;73.20;;;;;;5063705;28;20407;-78
2021/06/30 06:40:10;;;;;;;6.60;3.90;;;19.50;72.70;;;;;;5051642;28;20543;-72
2021/06/30 06:42:37;;;;;;;8.75;4.03;;;19.60;71.80;;;;;;5052233;28;20404;-75
2021/06/30 06:45:04;;;;;;;13.05;4.45;;;19.80;68.90;;;;;;5050869;28;20461;-74
2021/06/30 06:47:30;;;;;;;4.38;3.42;;;20.20;64.30;;;;;;5052804;28;20799;-75
2021/06/30 06:49:55;;;;;;;7.65;4.00;;;20.10;65.40;;;;;;5048015;28;20397;-76
2021/06/30 06:52:21;;;;;;;6.33;4.00;;;20.10;65.90;;;;;;5048251;28;20445;-76
2021/06/30 06:54:46;;;;;;;7.15;3.78;;;20.30;62.20;;;;;;5059296;28;20396;-76
2021/06/30 06:57:12;;;;;;;4.20;3.60;;;20.00;64.40;;;;;;5083469;28;20452;-76
2021/06/30 06:59:37;;;;;;;5.30;3.80;;;19.70;65.40;;;;;;5050726;28;20405;-76
2021/06/30 07:02:04;;;;;;;8.77;4.22;;;19.40;68.00;;;;;;5051391;28;20397;-77
2021/06/30 07:04:29;;;;;;;7.75;4.70;;;19.30;73.00;;;;;;5055752;28;20418;-76
2021/06/30 07:06:55;;;;;;;8.73;4.85;;;19.20;74.10;;;;;;5054548;28;20389;-77
2021/06/30 07:09:21;;;;;;;13.88;6.35;;;19.20;74.30;;;;;;5055582;28;20396;-78
2021/06/30 07:11:46;;;;;;;5.93;5.33;;;19.20;71.80;;;;;;5076917;28;20499;-79
2021/06/30 07:14:12;;;;;;;6.13;5.50;;;19.20;72.00;;;;;;5056428;28;20408;-76
2021/06/30 07:16:38;;;;;;;5.82;5.22;;;19.00;75.10;;;;;;5057043;28;20399;-79
2021/06/30 07:19:03;;;;;;;6.57;5.53;;;18.90;76.00;;;;;;5068989;28;21015;-78
2021/06/30 07:21:29;;;;;;;5.83;5.23;;;18.90;76.70;;;;;;5065969;28;20451;-78
2021/06/30 07:23:55;;;;;;;6.03;5.20;;;19.00;75.60;;;;;;5062056;28;20901;-77
2021/06/30 07:26:20;;;;;;;5.95;5.32;;;19.10;74.20;;;;;;5067590;28;20402;-77
2021/06/30 07:28:46;;;;;;;6.40;5.30;;;19.10;75.60;;;;;;5045942;28;20425;-77
2021/06/30 07:31:11;;;;;;;5.50;5.00;;;19.20;73.10;;;;;;5063692;28;20388;-77
2021/06/30 07:33:37;;;;;;;6.93;5.20;;;19.40;71.70;;;;;;5065757;28;20424;-77
2021/06/30 07:36:04;;;;;;;7.90;5.70;;;19.50;71.80;;;;;;5054923;28;20912;-77
2021/06/30 07:38:29;;;;;;;5.60;5.00;;;19.70;69.30;;;;;;5056378;28;20408;-77
2021/06/30 07:40:55;;;;;;;4.80;4.40;;;19.80;62.90;;;;;;5056895;28;20397;-78
2021/06/30 07:43:20;;;;;;;5.80;5.20;;;20.00;63.40;;;;;;5055028;28;20410;-77
2021/06/30 07:45:46;;;;;;;5.40;5.00;;;20.30;59.10;;;;;;5052940;28;20382;-77
2021/06/30 07:48:12;;;;;;;5.60;5.00;;;20.60;57.90;;;;;;5059663;28;20769;-77
2021/06/30 07:50:37;;;;;;;5.38;4.93;;;20.70;55.50;;;;;;5064752;28;20395;-77
2021/06/30 07:53:03;;;;;;;5.10;4.70;;;20.80;55.70;;;;;;5056238;28;20496;-77
2021/06/30 07:55:29;;;;;;;4.40;4.00;;;20.90;56.40;;;;;;5059408;28;20388;-76
2021/06/30 07:57:55;;;;;;;4.80;4.30;;;20.80;53.00;;;;;;5063210;28;20422;-77
2021/06/30 08:00:20;;;;;;;5.40;5.00;;;21.00;53.00;;;;;;5059148;28;20400;-77
2021/06/30 08:02:46;;;;;;;5.97;5.18;;;21.00;50.30;;;;;;5062586;28;20646;-77
2021/06/30 08:05:12;;;;;;;4.60;4.20;;;21.10;50.10;;;;;;5064734;28;20413;-77
2021/06/30 08:07:37;;;;;;;3.30;3.10;;;21.20;50.20;;;;;;5058823;28;20391;-77
2021/06/30 08:10:05;;;;;;;3.38;3.08;;;20.90;52.00;;;;;;5056949;28;20397;-77
2021/06/30 08:12:31;;;;;;;3.35;3.05;;;20.80;52.90;;;;;;5046351;28;20426;-78
2021/06/30 08:14:57;;;;;;;4.32;2.95;;;20.70;55.60;;;;;;5054603;28;20389;-77
2021/06/30 08:17:23;;;;;;;4.10;3.05;;;20.60;56.20;;;;;;5053271;28;20400;-76
2021/06/30 08:19:49;;;;;;;3.83;3.53;;;20.80;53.80;;;;;;5065632;28;20387;-76
2021/06/30 08:22:14;;;;;;;3.70;3.40;;;20.90;53.90;;;;;;5054870;28;20949;-76
2021/06/30 08:24:42;;;;;;;4.20;2.67;;;20.70;53.40;;;;;;5072227;28;20414;-75
2021/06/30 08:27:08;;;;;;;2.47;2.35;;;20.70;52.50;;;;;;5046092;28;20405;-75
2021/06/30 08:29:36;;;;;;;5.43;2.50;;;20.80;53.10;;;;;;5048343;28;20426;-76
2021/06/30 08:32:02;;;;;;;2.15;1.95;;;21.20;51.50;;;;;;5063484;28;20411;-76
2021/06/30 08:34:27;;;;;;;1.88;1.67;;;21.30;48.50;;;;;;5044457;28;20387;-76
2021/06/30 08:36:59;;;;;;;3.17;1.70;;;21.20;49.00;;;;;;5047463;28;20377;-77
2021/06/30 08:39:24;;;;;;;2.30;2.10;;;21.20;50.20;;;;;;5030191;28;20387;-76
2021/06/30 08:41:50;;;;;;;1.98;1.77;;;21.20;50.60;;;;;;5053057;28;20402;-76
2021/06/30 08:44:15;;;;;;;1.83;1.73;;;21.20;48.90;;;;;;5061765;28;20420;-76
2021/06/30 08:46:44;;;;;;;2.00;1.90;;;21.10;46.70;;;;;;5048132;28;20943;-75
2021/06/30 08:49:10;;;;;;;6.17;2.40;;;20.90;48.30;;;;;;5048179;28;20467;-76
2021/06/30 08:51:38;;;;;;;2.40;2.20;;;20.80;49.50;;;;;;5049155;28;20881;-75
2021/06/30 08:54:08;;;;;;;2.88;2.25;;;20.90;49.60;;;;;;5046419;28;20399;-76
2021/06/30 08:56:35;;;;;;;2.20;2.10;;;21.00;47.50;;;;;;5046041;28;20404;-75
2021/06/30 08:59:01;;;;;;;1.90;1.80;;;20.80;50.20;;;;;;5048447;28;20441;-76
2021/06/30 09:01:28;;;;;;;4.20;2.40;;;20.50;50.40;;;;;;5050351;28;20389;-77
2021/06/30 09:03:56;;;;;;;2.30;2.20;;;20.30;52.10;;;;;;5049033;28;20484;-74
2021/06/30 09:06:23;;;;;;;9.90;3.10;;;20.40;51.80;;;;;;5049770;28;20389;-74
2021/06/30 09:08:48;;;;;;;3.35;2.40;;;20.80;49.50;;;;;;5049757;28;20429;-74
2021/06/30 09:11:22;;;;;;;3.50;2.35;;;20.90;49.00;;;;;;5057921;28;20402;-74
2021/06/30 09:14:07;;;;;;;4.90;2.20;;;21.10;47.30;;;;;;5060840;28;20435;-76
2021/06/30 09:16:50;;;;;;;4.30;2.00;;;20.90;46.90;;;;;;5053660;28;20924;-76
2021/06/30 09:19:16;;;;;;;2.33;1.70;;;20.80;48.50;;;;;;5049442;28;20397;-75
2021/06/30 09:21:42;;;;;;;1.50;1.40;;;20.80;47.50;;;;;;5049226;28;20401;-77
2021/06/30 09:24:19;;;;;;;1.63;1.53;;;20.60;46.80;;;;;;5050556;28;20408;-75
2021/06/30 09:26:57;;;;;;;1.40;1.30;;;20.40;48.60;;;;;;5062250;28;20411;-75
2021/06/30 09:29:23;;;;;;;1.70;1.60;;;20.30;48.70;;;;;;5073050;28;20401;-76
2021/06/30 09:31:52;;;;;;;1.70;1.60;;;20.20;46.90;;;;;;5062893;28;20828;-76
2021/06/30 09:34:22;;;;;;;2.03;1.80;;;20.20;46.70;;;;;;5058753;28;20398;-76
2021/06/30 09:37:01;;;;;;;2.50;1.73;;;20.00;48.90;;;;;;5057377;28;20454;-76
2021/06/30 09:39:28;;;;;;;1.92;1.60;;;19.90;51.60;;;;;;5048414;28;20497;-77
2021/06/30 09:42:11;;;;;;;1.70;1.60;;;19.90;51.60;;;;;;5048194;28;20409;-76
2021/06/30 09:44:39;;;;;;;2.10;1.50;;;19.70;53.40;;;;;;5047761;28;20389;-76
2021/06/30 09:47:07;;;;;;;3.20;1.40;;;19.50;56.30;;;;;;5048903;28;20394;-77
2021/06/30 09:49:33;;;;;;;1.50;1.35;;;19.40;59.70;;;;;;5047548;28;20412;-76
2021/06/30 09:52:12;;;;;;;1.77;1.40;;;19.30;63.40;;;;;;5048110;28;20766;-75
2021/06/30 09:54:40;;;;;;;3.10;1.50;;;19.40;63.80;;;;;;5047014;28;20412;-77
2021/06/30 09:57:11;;;;;;;1.58;1.45;;;19.30;65.80;;;;;;5047655;28;20397;-77
2021/06/30 09:59:47;;;;;;;1.67;1.40;;;19.40;59.50;;;;;;5048063;28;20413;-75
2021/06/30 10:02:19;;;;;;;1.40;1.30;;;19.40;55.80;;;;;;5052598;28;20421;-77
2021/06/30 10:04:47;;;;;;;1.70;1.60;;;19.50;56.60;;;;;;5054166;28;20813;-76
2021/06/30 10:07:28;;;;;;;1.55;1.33;;;19.50;56.50;;;;;;5041849;28;20485;-78
2021/06/30 10:10:00;;;;;;;2.30;1.40;;;19.50;56.20;;;;;;5053427;28;20400;-77
2021/06/30 10:12:27;;;;;;;2.20;1.40;;;19.40;58.60;;;;;;5056476;28;20401;-77
2021/06/30 10:14:54;;;;;;;1.60;1.48;;;19.50;58.10;;;;;;5051757;28;20408;-76
2021/06/30 10:17:21;;;;;;;2.38;1.48;;;19.40;55.80;;;;;;5049933;28;21009;-77
2021/06/30 10:19:49;;;;;;;2.25;2.05;;;19.60;56.10;;;;;;5058558;28;20401;-76
2021/06/30 10:22:15;;;;;;;3.10;1.90;;;19.60;55.30;;;;;;5061230;28;20397;-75
2021/06/30 10:24:42;;;;;;;5.10;1.90;;;19.80;53.10;;;;;;5051162;28;20413;-77
2021/06/30 10:27:09;;;;;;;2.08;1.98;;;20.00;53.10;;;;;;5051914;28;20459;-78
2021/06/30 10:29:40;;;;;;;2.30;2.10;;;20.20;51.90;;;;;;5042687;28;20494;-78
2021/06/30 10:32:11;;;;;;;4.30;2.20;;;20.30;52.40;;;;;;5058755;28;20945;-77
2021/06/30 10:34:41;;;;;;;2.77;2.13;;;20.60;49.60;;;;;;5051548;28;20767;-77
2021/06/30 10:37:27;;;;;;;1.92;1.70;;;20.80;46.90;;;;;;5057058;28;20434;-78
2021/06/30 10:40:14;;;;;;;2.20;2.00;;;21.10;43.20;;;;;;5054855;28;20394;-77
2021/06/30 10:42:43;;;;;;;7.07;2.40;;;21.40;41.60;;;;;;5039204;28;20448;-76
2021/06/30 10:45:15;;;;;;;2.60;2.40;;;21.60;39.70;;;;;;5067285;28;20761;-78
2021/06/30 10:47:42;;;;;;;2.28;2.17;;;21.70;38.30;;;;;;5056774;28;20807;-76
2021/06/30 10:50:17;;;;;;;3.67;2.30;;;21.70;37.60;;;;;;5070388;28;20433;-76
2021/06/30 10:52:48;;;;;;;2.70;2.50;;;21.40;39.60;;;;;;5065731;28;20408;-76
2021/06/30 10:55:39;;;;;;;2.20;2.10;;;21.20;41.30;;;;;;5050958;28;20715;-76
2021/06/30 10:58:11;;;;;;;2.30;2.10;;;20.90;41.40;;;;;;5053512;28;20445;-76
2021/06/30 11:00:57;;;;;;;4.22;2.47;;;20.80;40.10;;;;;;5050553;28;20425;-76
2021/06/30 11:03:30;;;;;;;3.30;2.58;;;20.80;39.50;;;;;;5055996;28;20405;-75
2021/06/30 11:06:26;;;;;;;2.53;2.22;;;20.70;41.60;;;;;;5058002;28;20405;-76
2021/06/30 11:09:04;;;;;;;3.00;2.70;;;20.70;41.10;;;;;;5053914;28;20394;-77
2021/06/30 11:11:32;;;;;;;3.50;2.70;;;20.70;43.60;;;;;;5070482;28;20394;-76
2021/06/30 11:14:06;;;;;;;2.20;2.10;;;20.70;41.70;;;;;;5048748;28;20400;-77
2021/06/30 11:16:41;;;;;;;2.42;2.17;;;20.70;41.00;;;;;;5053674;28;20399;-77
2021/06/30 11:19:15;;;;;;;4.68;2.10;;;20.50;42.20;;;;;;5050196;28;20390;-77
2021/06/30 11:22:20;;;;;;;2.40;2.20;;;20.60;40.70;;;;;;5049742;28;20503;-77
2021/06/30 11:24:47;;;;;;;2.57;2.37;;;20.60;39.30;;;;;;5045207;28;20897;-76
2021/06/30 11:27:20;;;;;;;3.30;2.73;;;20.70;40.10;;;;;;5059987;28;20686;-77
2021/06/30 11:29:53;;;;;;;3.60;2.75;;;20.90;39.20;;;;;;5068789;28;20393;-77
2021/06/30 11:32:42;;;;;;;2.75;2.55;;;21.20;38.00;;;;;;5061216;28;20404;-77
2021/06/30 11:35:13;;;;;;;3.70;2.50;;;21.30;38.00;;;;;;5050495;28;20470;-77
2021/06/30 11:37:44;;;;;;;3.65;3.10;;;21.30;37.40;;;;;;5052408;28;20391;-77
2021/06/30 11:40:22;;;;;;;6.03;2.80;;;21.20;37.10;;;;;;5050949;28;20394;-78
2021/06/30 11:42:51;;;;;;;4.68;3.20;;;21.20;38.10;;;;;;5051133;28;20405;-78
2021/06/30 11:45:22;;;;;;;3.20;2.80;;;21.10;40.40;;;;;;5052071;28;20382;-77
2021/06/30 11:47:51;;;;;;;5.22;3.70;;;21.00;39.70;;;;;;5053149;28;20411;-77
2021/06/30 11:50:18;;;;;;;5.68;4.00;;;21.10;40.10;;;;;;5058824;28;20955;-78
2021/06/30 11:52:47;;;;;;;6.32;4.65;;;21.20;39.00;;;;;;5066609;28;20825;-78
2021/06/30 11:55:14;;;;;;;4.68;3.80;;;21.40;36.60;;;;;;5053463;28;20489;-78
2021/06/30 11:57:56;;;;;;;6.50;4.70;;;21.40;37.40;;;;;;5051889;28;20789;-77
2021/06/30 12:00:22;;;;;;;6.65;4.80;;;21.20;37.20;;;;;;5049964;28;20389;-76
2021/06/30 12:02:53;;;;;;;6.65;5.32;;;20.80;40.10;;;;;;5049145;28;20414;-79
2021/06/30 12:05:20;;;;;;;3.40;3.10;;;20.50;40.70;;;;;;5062909;28;20397;-77
2021/06/30 12:07:47;;;;;;;3.75;3.05;;;20.30;40.10;;;;;;5048024;28;20492;-76
2021/06/30 12:10:14;;;;;;;5.72;4.00;;;20.10;42.40;;;;;;5057106;28;20457;-77
2021/06/30 12:12:40;;;;;;;4.40;4.00;;;20.10;42.20;;;;;;5049453;28;20406;-76
2021/06/30 12:15:08;;;;;;;8.10;4.20;;;20.00;43.70;;;;;;5048739;28;20472;-76
2021/06/30 12:17:35;;;;;;;6.38;5.20;;;19.90;43.50;;;;;;5043702;28;20441;-75
2021/06/30 12:20:04;;;;;;;8.15;5.93;;;20.10;44.20;;;;;;5044917;28;20458;-78
2021/06/30 12:22:35;;;;;;;8.02;5.65;;;19.90;43.40;;;;;;5056710;28;20404;-76
2021/06/30 12:25:19;;;;;;;6.75;5.47;;;19.90;44.70;;;;;;5061900;28;20401;-77
2021/06/30 12:27:46;;;;;;;8.95;5.45;;;19.90;44.80;;;;;;5053376;28;20402;-77
2021/06/30 12:30:13;;;;;;;4.70;4.25;;;20.10;44.80;;;;;;5053392;28;20533;-78
2021/06/30 12:32:42;;;;;;;11.43;6.30;;;20.20;46.50;;;;;;5031376;28;20410;-77
2021/06/30 12:35:10;;;;;;;7.43;5.50;;;20.10;48.10;;;;;;5050463;28;20924;-77
2021/06/30 12:37:37;;;;;;;7.25;5.80;;;19.90;52.50;;;;;;5051702;28;20454;-77
2021/06/30 12:40:07;;;;;;;6.38;5.47;;;19.50;53.90;;;;;;5051202;28;20381;-77
2021/06/30 12:42:52;;;;;;;8.30;5.90;;;19.10;57.00;;;;;;5051621;28;20914;-77
2021/06/30 12:45:20;;;;;;;11.40;6.75;;;19.00;64.50;;;;;;5058746;28;20418;-76